Caribbean ExpreSS I — HO2750 — position and weather

sailwx.info

Track history (hours):
 
Tides and Currents Weather Stations Pressure Air Temp Water Temp Dewpoint Dewpoint Depression Visibility Wind Speed Wind Dir Waves Ship Positions

Caribbean ExpreSS I

Last reported at 2017-Sep-22 02:00 UTC. Time now 2017-Sep-22 19:15 UTC.
Position N 26°11' W 079°47'.

Length 57 m; draft 1.4 m.

Type: Cargo ship. MMSI: 355068000.

Date/timePositionNaut miles runAvg speedWind from/ knotsBaromVisibWave heightAir tempDewpointWater temp
2017-Sep-22 02:00N 26°11' W 079°47'5 9.6
2017-Sep-22 01:30N 26°10' W 079°52'5 9.7
2017-Sep-22 01:00N 26°08' W 079°57'5 9.8
2017-Sep-22 00:31N 26°06' W 080°02'4 8.3
2017-Sep-22 00:00N 26°05' W 080°07'2 3.3
2017-Sep-21 23:30N 26°04' W 080°08'0 0.0
2017-Sep-21 23:00N 26°04' W 080°08'0 0.0
2017-Sep-21 22:30N 26°04' W 080°08'0 0.0
2017-Sep-21 22:00N 26°04' W 080°08'0 0.0
2017-Sep-21 21:30N 26°04' W 080°08'0 0.0
2017-Sep-21 21:00N 26°04' W 080°08'0 0.0
2017-Sep-21 20:30N 26°04' W 080°08'0 0.0
2017-Sep-21 20:00N 26°04' W 080°08'0 0.0
2017-Sep-21 19:30N 26°04' W 080°08'0 0.0
2017-Sep-21 19:00N 26°04' W 080°08'0 0.0
2017-Sep-21 18:30N 26°04' W 080°08'0 0.0
2017-Sep-21 18:00N 26°04' W 080°08'0 0.0
2017-Sep-21 17:30N 26°04' W 080°08'0 0.0
2017-Sep-21 17:00N 26°04' W 080°08'0 0.0
2017-Sep-21 16:30N 26°04' W 080°08'0 0.0
2017-Sep-21 16:00N 26°04' W 080°08'0 0.0
2017-Sep-21 15:30N 26°04' W 080°08'0 0.9
2017-Sep-21 15:00N 26°04' W 080°07'3 6.1
2017-Sep-21 14:30N 26°05' W 080°04'611.2
2017-Sep-21 14:00N 26°02' W 079°59'511.0
2017-Sep-21 13:31N 26°01' W 079°53'611.1
2017-Sep-21 13:00N 25°59' W 079°47'611.2
2017-Sep-21 12:30N 25°57' W 079°41'11 0.3
2017-Sep-19 19:50N 26°05' W 079°33'3 9.8
2017-Sep-19 19:30N 26°06' W 079°37'5 9.4
2017-Sep-19 19:00N 26°06' W 079°42'5 9.4
2017-Sep-19 18:30N 26°06' W 079°47'5 9.8
2017-Sep-19 18:01N 26°05' W 079°53'5 9.7
2017-Sep-19 17:30N 26°05' W 079°58'510.0
2017-Sep-19 17:00N 26°06' W 080°04'4 7.3
2017-Sep-19 16:31N 26°04' W 080°07'0 1.0
2017-Sep-19 16:01N 26°04' W 080°08'0 0.0
2017-Sep-19 15:30N 26°04' W 080°08'0 0.0
2017-Sep-19 15:00N 26°04' W 080°08'0 0.0
2017-Sep-19 14:30N 26°04' W 080°08'0 0.0
2017-Sep-19 14:00N 26°04' W 080°08'0 0.0
2017-Sep-19 13:30N 26°04' W 080°08'0 0.0
2017-Sep-19 13:00N 26°04' W 080°08'0 0.0
2017-Sep-19 12:31N 26°04' W 080°08'0 0.0
2017-Sep-19 12:01N 26°04' W 080°08'0 0.0
2017-Sep-19 11:30N 26°04' W 080°08'0 0.0
2017-Sep-19 11:01N 26°04' W 080°08'0 0.0
2017-Sep-19 10:30N 26°04' W 080°08'0 0.0
2017-Sep-19 10:00N 26°04' W 080°08'0 0.0
2017-Sep-19 09:30N 26°04' W 080°08'0 0.0
2017-Sep-19 09:00N 26°04' W 080°08'0 0.0
2017-Sep-19 08:31N 26°04' W 080°08'0 0.0
2017-Sep-19 08:01N 26°04' W 080°08'0 0.0
2017-Sep-19 07:30N 26°04' W 080°08'0 0.0
2017-Sep-19 07:00N 26°04' W 080°08'0 0.0
2017-Sep-19 06:30N 26°04' W 080°08'0 0.0
2017-Sep-19 06:00N 26°04' W 080°08'0 0.0
2017-Sep-19 05:30N 26°04' W 080°08'0 0.0
2017-Sep-19 05:00N 26°04' W 080°08'0 0.0
2017-Sep-19 04:31N 26°04' W 080°08'0 0.0
2017-Sep-19 04:00N 26°04' W 080°08'0 0.0
2017-Sep-19 03:30N 26°04' W 080°08'0 0.0
2017-Sep-19 03:00N 26°04' W 080°08'0 0.0
2017-Sep-19 02:31N 26°04' W 080°08'0 0.0
2017-Sep-19 02:01N 26°04' W 080°08'0 0.0
2017-Sep-19 01:30N 26°04' W 080°08'0 0.0
2017-Sep-19 01:00N 26°04' W 080°08'0 0.0
2017-Sep-19 00:30N 26°04' W 080°08'0 0.0
2017-Sep-19 00:00N 26°04' W 080°08'0 0.0
2017-Sep-18 23:29N 26°04' W 080°08'0 0.0
2017-Sep-18 23:00N 26°04' W 080°08'0 0.0
2017-Sep-18 22:29N 26°04' W 080°08'0 0.0
2017-Sep-18 22:00N 26°04' W 080°08'0 0.0
2017-Sep-18 21:30N 26°04' W 080°08'0 0.0
2017-Sep-18 20:56N 26°04' W 080°08'0 0.0
2017-Sep-18 20:31N 26°04' W 080°08'0 0.0
2017-Sep-18 20:00N 26°04' W 080°08'0 0.0
2017-Sep-18 19:28N 26°04' W 080°08'0 0.0
2017-Sep-18 19:00N 26°04' W 080°08'0 0.0
2017-Sep-18 18:29N 26°04' W 080°08'0 0.0
2017-Sep-18 17:58N 26°04' W 080°08'0 0.0
2017-Sep-18 17:29N 26°04' W 080°08'0 0.0
2017-Sep-18 16:45N 26°04' W 080°08'1 2.8
2017-Sep-18 16:30N 26°04' W 080°07'3 5.3
2017-Sep-18 16:00N 26°05' W 080°05'510.0
2017-Sep-18 15:31N 26°03' W 079°59'5 9.8
2017-Sep-18 15:00N 26°02' W 079°54'510.4
2017-Sep-18 14:30N 26°00' W 079°49'510.1
2017-Sep-18 14:00N 25°59' W 079°43'5 9.9
2017-Sep-18 13:30N 25°58' W 079°38'19 0.4
2017-Sep-16 18:21N 26°05' W 079°57'3 9.7
2017-Sep-16 18:01N 26°05' W 080°01'5 9.7
2017-Sep-16 17:30N 26°06' W 080°06'3 5.2
2017-Sep-16 17:00N 26°04' W 080°08'0 0.1
2017-Sep-16 16:30N 26°04' W 080°08'0 0.0
2017-Sep-16 16:00N 26°04' W 080°08'0 0.0
2017-Sep-16 15:30N 26°04' W 080°08'0 0.0
2017-Sep-16 15:01N 26°04' W 080°08'0 0.0
2017-Sep-16 14:30N 26°04' W 080°08'0 0.0
2017-Sep-16 14:00N 26°04' W 080°08'0 0.0
2017-Sep-16 13:30N 26°04' W 080°08'0 0.0
2017-Sep-16 13:00N 26°04' W 080°08'0 0.0
2017-Sep-16 12:30N 26°04' W 080°08'0 0.0
2017-Sep-16 12:00N 26°04' W 080°08'0 0.0
2017-Sep-16 11:30N 26°04' W 080°08'0 0.0
2017-Sep-16 11:00N 26°04' W 080°08'0 0.0
2017-Sep-16 10:31N 26°04' W 080°08'0 0.1
2017-Sep-16 10:00N 26°04' W 080°08'3 5.2
2017-Sep-16 09:30N 26°06' W 080°06'510.0
2017-Sep-16 09:01N 26°06' W 080°00'2 4.4
2017-Sep-16 08:30N 26°05' W 079°59'3 6.5
2017-Sep-16 08:00N 26°02' W 079°56'4 8.4
2017-Sep-16 07:30N 26°01' W 079°52'4 8.6
2017-Sep-16 07:01N 26°01' W 079°47'4 8.7
2017-Sep-16 06:31N 25°60' W 079°42'4 8.8
2017-Sep-16 06:01N 25°58' W 079°38'  
2017-Sep-13 19:40N 26°04' W 080°07'1 5.3
2017-Sep-13 19:26N 26°04' W 080°08'0 0.2
2017-Sep-13 19:00N 26°04' W 080°08'0 0.0
2017-Sep-13 18:29N 26°04' W 080°08'0 0.0
2017-Sep-13 18:00N 26°04' W 080°08'0 0.0
2017-Sep-13 17:30N 26°04' W 080°08'0 0.0
2017-Sep-13 16:55N 26°04' W 080°08'0 0.0
2017-Sep-13 16:22N 26°04' W 080°08'0 0.0
2017-Sep-13 15:51N 26°04' W 080°08'0 0.0
2017-Sep-13 15:30N 26°04' W 080°08'1 1.9
2017-Sep-13 14:59N 26°04' W 080°07'2 4.0
2017-Sep-13 14:30N 26°06' W 080°05'510.7
2017-Sep-13 14:00N 26°01' W 080°03'713.4
2017-Sep-13 13:30N 25°54' W 080°01'713.5
2017-Sep-13 13:00N 25°48' W 080°00'713.4
2017-Sep-13 12:30N 25°41' W 079°60'713.3
2017-Sep-13 12:00N 25°34' W 079°59'713.2
2017-Sep-13 11:27N 25°27' W 079°59'  
Track history (hours):
 
Tides and Currents Weather Stations Pressure Air Temp Water Temp Dewpoint Dewpoint Depression Visibility Wind Speed Wind Dir Waves Ship Positions

Caribbean ExpreSS I

Last reported at 2017-Sep-22 02:00 UTC. Time now 2017-Sep-22 19:15 UTC.
Position N 26°11' W 079°47'.

Length 57 m; draft 1.4 m.

Type: Cargo ship. MMSI: 355068000.

Date/timePositionNaut miles runAvg speedWind from/ knotsBaromVisibWave heightAir tempDewpointWater temp
2017-Sep-22 02:00N 26°11' W 079°47'5 9.6
2017-Sep-22 01:30N 26°10' W 079°52'5 9.7
2017-Sep-22 01:00N 26°08' W 079°57'5 9.8
2017-Sep-22 00:31N 26°06' W 080°02'4 8.3
2017-Sep-22 00:00N 26°05' W 080°07'2 3.3
2017-Sep-21 23:30N 26°04' W 080°08'0 0.0
2017-Sep-21 23:00N 26°04' W 080°08'0 0.0
2017-Sep-21 22:30N 26°04' W 080°08'0 0.0
2017-Sep-21 22:00N 26°04' W 080°08'0 0.0
2017-Sep-21 21:30N 26°04' W 080°08'0 0.0
2017-Sep-21 21:00N 26°04' W 080°08'0 0.0
2017-Sep-21 20:30N 26°04' W 080°08'0 0.0
2017-Sep-21 20:00N 26°04' W 080°08'0 0.0
2017-Sep-21 19:30N 26°04' W 080°08'0 0.0
2017-Sep-21 19:00N 26°04' W 080°08'0 0.0
2017-Sep-21 18:30N 26°04' W 080°08'0 0.0
2017-Sep-21 18:00N 26°04' W 080°08'0 0.0
2017-Sep-21 17:30N 26°04' W 080°08'0 0.0
2017-Sep-21 17:00N 26°04' W 080°08'0 0.0
2017-Sep-21 16:30N 26°04' W 080°08'0 0.0
2017-Sep-21 16:00N 26°04' W 080°08'0 0.0
2017-Sep-21 15:30N 26°04' W 080°08'0 0.9
2017-Sep-21 15:00N 26°04' W 080°07'3 6.1
2017-Sep-21 14:30N 26°05' W 080°04'611.2
2017-Sep-21 14:00N 26°02' W 079°59'511.0
2017-Sep-21 13:31N 26°01' W 079°53'611.1
2017-Sep-21 13:00N 25°59' W 079°47'611.2
2017-Sep-21 12:30N 25°57' W 079°41'11 0.3
2017-Sep-19 19:50N 26°05' W 079°33'3 9.8
2017-Sep-19 19:30N 26°06' W 079°37'5 9.4
2017-Sep-19 19:00N 26°06' W 079°42'5 9.4
2017-Sep-19 18:30N 26°06' W 079°47'5 9.8
2017-Sep-19 18:01N 26°05' W 079°53'5 9.7
2017-Sep-19 17:30N 26°05' W 079°58'510.0
2017-Sep-19 17:00N 26°06' W 080°04'4 7.3
2017-Sep-19 16:31N 26°04' W 080°07'0 1.0
2017-Sep-19 16:01N 26°04' W 080°08'0 0.0
2017-Sep-19 15:30N 26°04' W 080°08'0 0.0
2017-Sep-19 15:00N 26°04' W 080°08'0 0.0
2017-Sep-19 14:30N 26°04' W 080°08'0 0.0
2017-Sep-19 14:00N 26°04' W 080°08'0 0.0
2017-Sep-19 13:30N 26°04' W 080°08'0 0.0
2017-Sep-19 13:00N 26°04' W 080°08'0 0.0
2017-Sep-19 12:31N 26°04' W 080°08'0 0.0
2017-Sep-19 12:01N 26°04' W 080°08'0 0.0
2017-Sep-19 11:30N 26°04' W 080°08'0 0.0
2017-Sep-19 11:01N 26°04' W 080°08'0 0.0
2017-Sep-19 10:30N 26°04' W 080°08'0 0.0
2017-Sep-19 10:00N 26°04' W 080°08'0 0.0
2017-Sep-19 09:30N 26°04' W 080°08'0 0.0
2017-Sep-19 09:00N 26°04' W 080°08'0 0.0
2017-Sep-19 08:31N 26°04' W 080°08'0 0.0
2017-Sep-19 08:01N 26°04' W 080°08'0 0.0
2017-Sep-19 07:30N 26°04' W 080°08'0 0.0
2017-Sep-19 07:00N 26°04' W 080°08'0 0.0
2017-Sep-19 06:30N 26°04' W 080°08'0 0.0
2017-Sep-19 06:00N 26°04' W 080°08'0 0.0
2017-Sep-19 05:30N 26°04' W 080°08'0 0.0
2017-Sep-19 05:00N 26°04' W 080°08'0 0.0
2017-Sep-19 04:31N 26°04' W 080°08'0 0.0
2017-Sep-19 04:00N 26°04' W 080°08'0 0.0
2017-Sep-19 03:30N 26°04' W 080°08'0 0.0
2017-Sep-19 03:00N 26°04' W 080°08'0 0.0
2017-Sep-19 02:31N 26°04' W 080°08'0 0.0
2017-Sep-19 02:01N 26°04' W 080°08'0 0.0
2017-Sep-19 01:30N 26°04' W 080°08'0 0.0
2017-Sep-19 01:00N 26°04' W 080°08'0 0.0
2017-Sep-19 00:30N 26°04' W 080°08'0 0.0
2017-Sep-19 00:00N 26°04' W 080°08'0 0.0
2017-Sep-18 23:29N 26°04' W 080°08'0 0.0
2017-Sep-18 23:00N 26°04' W 080°08'0 0.0
2017-Sep-18 22:29N 26°04' W 080°08'0 0.0
2017-Sep-18 22:00N 26°04' W 080°08'0 0.0
2017-Sep-18 21:30N 26°04' W 080°08'0 0.0
2017-Sep-18 20:56N 26°04' W 080°08'0 0.0
2017-Sep-18 20:31N 26°04' W 080°08'0 0.0
2017-Sep-18 20:00N 26°04' W 080°08'0 0.0
2017-Sep-18 19:28N 26°04' W 080°08'0 0.0
2017-Sep-18 19:00N 26°04' W 080°08'0 0.0
2017-Sep-18 18:29N 26°04' W 080°08'0 0.0
2017-Sep-18 17:58N 26°04' W 080°08'0 0.0
2017-Sep-18 17:29N 26°04' W 080°08'0 0.0
2017-Sep-18 16:45N 26°04' W 080°08'1 2.8
2017-Sep-18 16:30N 26°04' W 080°07'3 5.3
2017-Sep-18 16:00N 26°05' W 080°05'510.0
2017-Sep-18 15:31N 26°03' W 079°59'5 9.8
2017-Sep-18 15:00N 26°02' W 079°54'510.4
2017-Sep-18 14:30N 26°00' W 079°49'510.1
2017-Sep-18 14:00N 25°59' W 079°43'5 9.9
2017-Sep-18 13:30N 25°58' W 079°38'19 0.4
2017-Sep-16 18:21N 26°05' W 079°57'3 9.7
2017-Sep-16 18:01N 26°05' W 080°01'5 9.7
2017-Sep-16 17:30N 26°06' W 080°06'3 5.2
2017-Sep-16 17:00N 26°04' W 080°08'0 0.1
2017-Sep-16 16:30N 26°04' W 080°08'0 0.0
2017-Sep-16 16:00N 26°04' W 080°08'0 0.0
2017-Sep-16 15:30N 26°04' W 080°08'0 0.0
2017-Sep-16 15:01N 26°04' W 080°08'0 0.0
2017-Sep-16 14:30N 26°04' W 080°08'0 0.0
2017-Sep-16 14:00N 26°04' W 080°08'0 0.0
2017-Sep-16 13:30N 26°04' W 080°08'0 0.0
2017-Sep-16 13:00N 26°04' W 080°08'0 0.0
2017-Sep-16 12:30N 26°04' W 080°08'0 0.0
2017-Sep-16 12:00N 26°04' W 080°08'0 0.0
2017-Sep-16 11:30N 26°04' W 080°08'0 0.0
2017-Sep-16 11:00N 26°04' W 080°08'0 0.0
2017-Sep-16 10:31N 26°04' W 080°08'0 0.1
2017-Sep-16 10:00N 26°04' W 080°08'3 5.2
2017-Sep-16 09:30N 26°06' W 080°06'510.0
2017-Sep-16 09:01N 26°06' W 080°00'2 4.4
2017-Sep-16 08:30N 26°05' W 079°59'3 6.5
2017-Sep-16 08:00N 26°02' W 079°56'4 8.4
2017-Sep-16 07:30N 26°01' W 079°52'4 8.6
2017-Sep-16 07:01N 26°01' W 079°47'4 8.7
2017-Sep-16 06:31N 25°60' W 079°42'4 8.8
2017-Sep-16 06:01N 25°58' W 079°38'  
2017-Sep-13 19:40N 26°04' W 080°07'1 5.3
2017-Sep-13 19:26N 26°04' W 080°08'0 0.2
2017-Sep-13 19:00N 26°04' W 080°08'0 0.0
2017-Sep-13 18:29N 26°04' W 080°08'0 0.0
2017-Sep-13 18:00N 26°04' W 080°08'0 0.0
2017-Sep-13 17:30N 26°04' W 080°08'0 0.0
2017-Sep-13 16:55N 26°04' W 080°08'0 0.0
2017-Sep-13 16:22N 26°04' W 080°08'0 0.0
2017-Sep-13 15:51N 26°04' W 080°08'0 0.0
2017-Sep-13 15:30N 26°04' W 080°08'1 1.9
2017-Sep-13 14:59N 26°04' W 080°07'2 4.0
2017-Sep-13 14:30N 26°06' W 080°05'510.7
2017-Sep-13 14:00N 26°01' W 080°03'713.4
2017-Sep-13 13:30N 25°54' W 080°01'713.5
2017-Sep-13 13:00N 25°48' W 080°00'713.4
2017-Sep-13 12:30N 25°41' W 079°60'713.3
2017-Sep-13 12:00N 25°34' W 079°59'713.2
2017-Sep-13 11:27N 25°27' W 079°59'  

Dump ship's entire track history